createdAt,value
2018-10-01T00:01:06.233Z,71.84
2018-10-01T00:03:33.866Z,71.83
2018-10-01T00:06:01.476Z,71.70
2018-10-01T00:08:29.027Z,71.91
2018-10-01T00:10:56.539Z,72.11
2018-10-01T00:13:24.105Z,72.09
2018-10-01T00:15:51.640Z,72.55
2018-10-01T00:18:19.201Z,72.25
2018-10-01T00:21:02.480Z,71.59
2018-10-01T00:23:30.000Z,72.41
2018-10-01T00:25:57.596Z,72.33
2018-10-01T00:28:25.169Z,72.41
2018-10-01T00:30:52.739Z,72.45
2018-10-01T00:33:20.287Z,71.90
2018-10-01T00:35:47.832Z,72.35
2018-10-01T00:38:15.401Z,72.16
2018-10-01T00:40:42.964Z,71.72
2018-10-01T00:43:10.499Z,71.95
2018-10-01T00:45:38.041Z,71.38
2018-10-01T00:48:05.603Z,72.02
2018-10-01T00:50:33.175Z,72.39
2018-10-01T00:53:00.732Z,72.25
2018-10-01T00:55:28.302Z,71.84
2018-10-01T00:57:55.825Z,71.22
2018-10-01T01:00:23.378Z,70.91
2018-10-01T01:02:50.951Z,71.56
2018-10-01T01:05:18.454Z,71.71
2018-10-01T01:07:46.034Z,72.26
2018-10-01T01:10:13.590Z,72.44
2018-10-01T01:12:41.154Z,72.26
2018-10-01T01:15:08.707Z,72.91
2018-10-01T01:17:36.221Z,72.27
2018-10-01T01:20:03.778Z,72.49
2018-10-01T01:22:31.349Z,72.55
2018-10-01T01:24:58.867Z,72.43
2018-10-01T01:27:26.444Z,71.83
2018-10-01T01:29:54.007Z,72.61
2018-10-01T01:32:21.846Z,72.87
2018-10-01T01:34:49.424Z,73.18
2018-10-01T01:37:17.009Z,73.45
2018-10-01T01:39:44.583Z,73.46
2018-10-01T01:42:12.142Z,73.25
2018-10-01T01:44:39.668Z,73.49
2018-10-01T01:47:07.244Z,73.00
2018-10-01T01:49:34.752Z,73.40
2018-10-01T01:52:02.309Z,73.58
2018-10-01T01:54:29.865Z,73.40
2018-10-01T01:56:57.438Z,73.41
2018-10-01T01:59:25.021Z,73.45
2018-10-01T02:01:52.559Z,73.43
2018-10-01T02:04:20.105Z,73.65
2018-10-01T02:06:47.648Z,73.62
2018-10-01T02:09:15.206Z,73.61
2018-10-01T02:11:42.820Z,73.21
2018-10-01T02:14:10.397Z,73.03
2018-10-01T02:16:37.920Z,73.38
2018-10-01T02:19:05.712Z,73.07
2018-10-01T02:21:33.218Z,72.11
2018-10-01T02:24:00.766Z,71.87
2018-10-01T02:26:28.318Z,73.65
2018-10-01T02:28:55.864Z,73.05
2018-10-01T02:31:23.611Z,73.12
2018-10-01T02:33:51.170Z,73.50
2018-10-01T02:36:18.722Z,72.22
2018-10-01T02:38:46.286Z,72.78
2018-10-01T02:41:14.064Z,72.91
2018-10-01T02:43:41.625Z,72.31
2018-10-01T02:46:09.140Z,73.59
2018-10-01T02:48:36.721Z,73.54
2018-10-01T02:51:04.259Z,73.79
2018-10-01T02:53:50.618Z,74.59
2018-10-01T02:56:18.135Z,75.62
2018-10-01T02:58:45.725Z,75.07
2018-10-01T03:01:13.270Z,75.64
2018-10-01T03:03:40.833Z,75.09
2018-10-01T03:06:08.349Z,75.31
2018-10-01T03:08:36.012Z,74.64
2018-10-01T03:11:03.537Z,76.07
2018-10-01T03:13:31.084Z,75.86
2018-10-01T03:15:58.790Z,75.34
2018-10-01T03:18:26.408Z,75.31
2018-10-01T03:20:53.988Z,75.97
2018-10-01T03:23:21.545Z,75.61
2018-10-01T03:25:49.223Z,76.38
2018-10-01T03:28:16.747Z,75.70
2018-10-01T03:30:44.331Z,76.33
2018-10-01T03:33:11.853Z,75.79
2018-10-01T03:35:39.369Z,76.62
2018-10-01T03:38:06.927Z,76.47
2018-10-01T03:40:34.462Z,76.38
2018-10-01T03:43:02.069Z,76.32
2018-10-01T03:45:29.735Z,76.33
2018-10-01T03:47:57.322Z,76.17
2018-10-01T03:50:24.860Z,76.04
2018-10-01T03:52:52.500Z,75.89
2018-10-01T03:55:20.070Z,76.00
2018-10-01T03:57:47.642Z,75.90
2018-10-01T04:00:15.212Z,75.75
2018-10-01T04:02:42.779Z,75.92
2018-10-01T04:05:10.388Z,75.92
2018-10-01T04:07:37.934Z,75.82
2018-10-01T04:10:05.492Z,75.21
2018-10-01T04:12:33.016Z,75.37
2018-10-01T04:15:00.579Z,75.40
2018-10-01T04:17:28.146Z,75.11
2018-10-01T04:19:55.671Z,75.22
2018-10-01T04:22:23.231Z,75.05
2018-10-01T04:24:50.818Z,75.04
2018-10-01T04:27:18.361Z,75.64
2018-10-01T04:29:45.946Z,75.01
2018-10-01T04:32:13.701Z,74.74
2018-10-01T04:34:41.228Z,74.23
2018-10-01T04:37:08.759Z,74.31
2018-10-01T04:39:36.305Z,73.92
2018-10-01T04:42:03.895Z,73.80
2018-10-01T04:44:31.477Z,74.55
2018-10-01T04:46:59.005Z,74.31
2018-10-01T04:49:26.570Z,73.81
2018-10-01T04:51:54.165Z,74.19
2018-10-01T04:54:21.732Z,74.29
2018-10-01T04:56:49.466Z,74.73
2018-10-01T04:59:16.982Z,74.58
2018-10-01T05:01:44.697Z,74.09
2018-10-01T05:04:12.264Z,73.90
2018-10-01T05:06:39.838Z,73.69
2018-10-01T05:09:07.436Z,73.68
2018-10-01T05:11:34.994Z,73.58
2018-10-01T05:14:02.663Z,73.53
2018-10-01T05:16:30.178Z,74.22
2018-10-01T05:18:57.725Z,74.11
2018-10-01T05:21:25.290Z,73.25
2018-10-01T05:23:52.818Z,73.26
2018-10-01T05:26:20.414Z,73.03
2018-10-01T05:28:47.989Z,72.85
2018-10-01T05:31:15.499Z,72.65
2018-10-01T05:33:43.194Z,72.92
2018-10-01T05:36:10.756Z,73.37
2018-10-01T05:38:38.305Z,72.41
2018-10-01T05:41:05.846Z,72.66
2018-10-01T05:43:33.413Z,72.84
2018-10-01T05:46:00.964Z,73.29
2018-10-01T05:48:28.481Z,73.29
2018-10-01T05:50:56.079Z,73.39
2018-10-01T05:53:23.620Z,73.54
2018-10-01T05:55:51.189Z,73.55
2018-10-01T05:58:18.781Z,73.29
2018-10-01T06:00:46.340Z,72.57
2018-10-01T06:03:13.901Z,72.93
2018-10-01T06:05:41.433Z,73.88
2018-10-01T06:08:09.042Z,73.78
2018-10-01T06:10:36.576Z,73.92
2018-10-01T06:13:04.167Z,73.63
2018-10-01T06:15:31.692Z,73.99
2018-10-01T06:18:00.161Z,73.19
2018-10-01T06:20:27.770Z,73.48
2018-10-01T06:22:55.434Z,73.96
2018-10-01T06:25:23.025Z,74.83
2018-10-01T06:27:50.559Z,73.64
2018-10-01T06:30:18.220Z,73.99
2018-10-01T06:32:45.764Z,74.29
2018-10-01T06:35:13.347Z,73.32
2018-10-01T06:37:40.904Z,72.91
2018-10-01T06:40:08.461Z,72.94
2018-10-01T06:42:36.029Z,73.08
2018-10-01T06:45:03.539Z,73.48
2018-10-01T06:47:31.120Z,73.13
2018-10-01T06:49:58.767Z,73.30
2018-10-01T06:52:26.551Z,74.21
2018-10-01T06:54:54.095Z,74.20
2018-10-01T06:57:21.617Z,74.33
2018-10-01T06:59:49.210Z,74.46
2018-10-01T07:02:17.049Z,75.22
2018-10-01T07:04:44.906Z,74.42
2018-10-01T07:07:14.361Z,75.19
2018-10-01T07:09:42.661Z,74.89
2018-10-01T07:12:10.661Z,74.50
2018-10-01T07:14:39.152Z,74.28
2018-10-01T07:17:07.518Z,74.57
2018-10-01T07:19:35.477Z,74.76
2018-10-01T07:22:03.561Z,73.96
2018-10-01T07:24:31.257Z,74.39
2018-10-01T07:26:59.170Z,73.88
2018-10-01T07:29:27.110Z,74.22
2018-10-01T07:31:55.201Z,73.68
2018-10-01T07:34:22.895Z,73.09
2018-10-01T07:36:50.810Z,73.54
2018-10-01T07:39:19.398Z,73.83
2018-10-01T07:41:47.130Z,73.63
2018-10-01T07:44:14.722Z,73.36
2018-10-01T07:46:42.489Z,73.70
2018-10-01T07:49:10.138Z,73.40
2018-10-01T07:51:37.823Z,72.65
2018-10-01T07:54:05.566Z,73.31
2018-10-01T07:56:33.089Z,73.41
2018-10-01T07:59:00.627Z,72.78
2018-10-01T08:01:28.183Z,73.25
2018-10-01T08:03:55.861Z,73.19
2018-10-01T08:06:23.541Z,72.75
2018-10-01T08:08:51.122Z,72.73
2018-10-01T08:11:18.848Z,72.16
2018-10-01T08:13:46.596Z,72.10
2018-10-01T08:16:14.264Z,72.31
2018-10-01T08:18:41.822Z,70.72
2018-10-01T08:21:09.599Z,70.81
2018-10-01T08:23:37.265Z,69.78
2018-10-01T08:26:05.110Z,69.20
2018-10-01T08:28:33.789Z,68.74
2018-10-01T08:31:01.588Z,68.13
2018-10-01T08:33:29.272Z,67.18
2018-10-01T08:35:56.908Z,67.48
2018-10-01T08:38:24.590Z,67.86
2018-10-01T08:40:52.221Z,68.10
2018-10-01T08:43:19.916Z,67.93
2018-10-01T08:45:47.460Z,69.10
2018-10-01T08:48:15.310Z,68.71
2018-10-01T08:50:42.993Z,68.37
2018-10-01T08:53:10.888Z,67.98
2018-10-01T08:55:38.641Z,67.82
2018-10-01T08:58:06.358Z,67.96
2018-10-01T09:00:34.113Z,67.82
2018-10-01T09:03:01.710Z,67.95
2018-10-01T09:05:29.270Z,67.72
2018-10-01T09:07:56.926Z,67.57
2018-10-01T09:10:24.630Z,67.79
2018-10-01T09:12:53.105Z,67.24
2018-10-01T09:15:20.741Z,67.01
2018-10-01T09:17:48.350Z,67.32
2018-10-01T09:20:16.152Z,67.62
2018-10-01T09:22:43.759Z,67.12
2018-10-01T09:25:11.550Z,66.67
2018-10-01T09:27:39.184Z,66.90
2018-10-01T09:30:07.108Z,66.44
2018-10-01T09:32:34.785Z,67.08
2018-10-01T09:35:02.518Z,67.43
2018-10-01T09:37:30.295Z,66.76
2018-10-01T09:39:57.972Z,66.79
2018-10-01T09:42:25.622Z,66.03
2018-10-01T09:44:53.373Z,65.73
2018-10-01T09:47:20.986Z,65.90
2018-10-01T09:49:48.681Z,63.65
2018-10-01T09:52:16.353Z,62.58
2018-10-01T09:54:43.910Z,63.05
2018-10-01T09:57:11.489Z,62.58
2018-10-01T09:59:39.013Z,62.88
2018-10-01T10:02:06.679Z,62.94
2018-10-01T10:04:34.259Z,62.72
2018-10-01T10:07:01.933Z,63.03
2018-10-01T10:09:29.484Z,63.16
2018-10-01T10:11:57.043Z,62.83
2018-10-01T10:14:24.770Z,63.45
2018-10-01T10:16:52.414Z,64.07
2018-10-01T10:19:20.069Z,63.60
2018-10-01T10:21:47.638Z,64.11
2018-10-01T10:24:15.353Z,64.27
2018-10-01T10:26:42.898Z,64.71
2018-10-01T10:29:10.464Z,64.03
2018-10-01T10:31:38.024Z,64.40
2018-10-01T10:34:05.715Z,65.66
2018-10-01T10:36:33.785Z,65.01
2018-10-01T10:39:01.807Z,65.75
2018-10-01T10:41:29.437Z,66.13
2018-10-01T10:43:57.066Z,65.96
2018-10-01T10:46:25.378Z,65.37
2018-10-01T10:48:53.217Z,65.66
2018-10-01T10:51:20.887Z,65.24
2018-10-01T10:53:48.667Z,65.27
2018-10-01T10:56:16.751Z,64.64
2018-10-01T10:58:44.379Z,66.03
2018-10-01T11:01:11.895Z,65.58
2018-10-01T11:03:39.452Z,64.58
2018-10-01T11:06:07.016Z,63.92
2018-10-01T11:08:34.588Z,62.23
2018-10-01T11:11:03.082Z,63.41
2018-10-01T11:13:31.345Z,62.41
2018-10-01T11:16:00.632Z,62.20
2018-10-01T11:18:28.725Z,60.58
2018-10-01T11:20:56.912Z,61.19
2018-10-01T11:23:25.067Z,61.40
2018-10-01T11:25:52.883Z,61.71
2018-10-01T11:28:20.585Z,64.65
2018-10-01T11:30:48.087Z,67.68
2018-10-01T11:33:15.711Z,74.49
2018-10-01T11:35:43.267Z,77.19
2018-10-01T11:38:10.903Z,74.93
2018-10-01T11:40:38.704Z,76.68
2018-10-01T11:43:06.254Z,79.02
2018-10-01T11:45:33.847Z,75.55
2018-10-01T11:48:01.367Z,75.03
2018-10-01T11:50:28.936Z,76.32
2018-10-01T11:52:56.479Z,77.49
2018-10-01T11:55:24.268Z,76.79
2018-10-01T11:57:51.843Z,76.80
2018-10-01T12:00:20.375Z,76.92
2018-10-01T12:02:47.893Z,78.10
2018-10-01T12:05:15.568Z,79.10
2018-10-01T12:07:43.155Z,79.87
2018-10-01T12:10:10.929Z,77.87
2018-10-01T12:12:38.635Z,80.49
2018-10-01T12:15:06.169Z,80.80
2018-10-01T12:17:33.808Z,80.08
2018-10-01T12:20:01.348Z,80.20
2018-10-01T12:22:30.008Z,79.98
2018-10-01T12:24:57.573Z,79.34
2018-10-01T12:27:25.145Z,78.75
2018-10-01T12:29:52.718Z,77.78
2018-10-01T12:32:20.270Z,77.74
2018-10-01T12:34:47.830Z,78.13
2018-10-01T12:37:15.397Z,78.71
2018-10-01T12:39:42.997Z,77.12
2018-10-01T12:42:10.552Z,76.24
2018-10-01T12:44:38.136Z,76.39
2018-10-01T12:47:05.666Z,74.78
2018-10-01T12:49:33.271Z,74.04
2018-10-01T12:52:00.777Z,73.81
2018-10-01T12:54:28.418Z,76.17
2018-10-01T12:56:56.082Z,75.82
2018-10-01T12:59:23.670Z,75.22
2018-10-01T13:01:51.460Z,74.71
2018-10-01T13:04:19.238Z,74.41
2018-10-01T13:06:46.881Z,75.41
2018-10-01T13:09:14.362Z,77.11
2018-10-01T13:11:41.979Z,77.58
2018-10-01T13:14:09.565Z,73.88
2018-10-01T13:16:37.148Z,74.80
2018-10-01T13:19:04.928Z,75.15
2018-10-01T13:21:32.500Z,74.86
2018-10-01T13:24:00.371Z,75.14
2018-10-01T13:26:27.896Z,76.70
2018-10-01T13:28:55.447Z,76.30
2018-10-01T13:31:23.033Z,77.99
2018-10-01T13:33:50.555Z,73.58
2018-10-01T13:36:18.501Z,75.52
2018-10-01T13:38:46.018Z,74.39
2018-10-01T13:41:13.553Z,73.86
2018-10-01T13:43:41.110Z,73.60
2018-10-01T13:46:08.793Z,73.13
2018-10-01T13:48:36.452Z,72.87
2018-10-01T13:51:04.048Z,72.50
2018-10-01T13:53:31.632Z,73.37
2018-10-01T13:55:59.275Z,72.86
2018-10-01T13:58:26.959Z,72.69
2018-10-01T14:00:54.463Z,73.44
2018-10-01T14:03:22.021Z,73.05
2018-10-01T14:05:49.729Z,72.01
2018-10-01T14:08:17.415Z,69.81
2018-10-01T14:10:44.966Z,68.72
2018-10-01T14:13:12.597Z,68.00
2018-10-01T14:15:40.176Z,68.12
2018-10-01T14:18:07.983Z,67.78
2018-10-01T14:20:35.580Z,70.36
2018-10-01T14:23:03.136Z,69.33
2018-10-01T14:25:30.854Z,69.36
2018-10-01T14:27:58.371Z,66.90
2018-10-01T14:30:26.580Z,67.79
2018-10-01T14:32:54.241Z,65.40
2018-10-01T14:35:21.969Z,66.26
2018-10-01T14:37:49.929Z,66.61
2018-10-01T14:40:17.579Z,67.32
2018-10-01T14:42:45.219Z,67.58
2018-10-01T14:45:13.057Z,67.11
2018-10-01T14:47:41.088Z,65.17
2018-10-01T14:50:08.782Z,65.87
2018-10-01T14:52:36.527Z,64.77
2018-10-01T14:55:04.384Z,63.54
2018-10-01T14:57:33.131Z,63.89
2018-10-01T15:00:00.848Z,62.73
2018-10-01T15:02:28.408Z,63.27
2018-10-01T15:04:56.157Z,64.12
2018-10-01T15:07:23.968Z,64.19
2018-10-01T15:09:51.732Z,64.14
2018-10-01T15:12:20.433Z,64.15
2018-10-01T15:14:48.156Z,65.08
2018-10-01T15:17:15.830Z,64.23
2018-10-01T15:19:44.169Z,64.69
2018-10-01T15:22:12.456Z,63.96
2018-10-01T15:24:40.117Z,65.06
2018-10-01T15:27:07.921Z,64.74
2018-10-01T15:29:35.583Z,65.34
2018-10-01T15:32:03.283Z,67.31
2018-10-01T15:34:30.980Z,67.27
2018-10-01T15:36:58.753Z,66.31
2018-10-01T15:39:26.461Z,65.81
2018-10-01T15:41:54.221Z,65.61
2018-10-01T15:44:22.111Z,67.31
2018-10-01T15:46:49.737Z,69.18
2018-10-01T15:49:17.511Z,69.78
2018-10-01T15:51:45.176Z,69.42
2018-10-01T15:54:12.803Z,70.33
2018-10-01T15:56:40.403Z,71.69
2018-10-01T15:59:08.127Z,72.31
2018-10-01T16:01:35.804Z,71.66
2018-10-01T16:04:03.484Z,72.71
2018-10-01T16:06:31.082Z,73.41
2018-10-01T16:08:58.732Z,73.18
2018-10-01T16:11:26.329Z,73.45
2018-10-01T16:13:53.965Z,73.93
2018-10-01T16:16:21.556Z,73.47
2018-10-01T16:18:49.208Z,73.86
2018-10-01T16:21:17.001Z,73.21
2018-10-01T16:23:44.637Z,73.30
2018-10-01T16:26:12.248Z,73.04
2018-10-01T16:28:39.935Z,73.20
2018-10-01T16:31:07.629Z,73.02
2018-10-01T16:33:35.327Z,73.03
2018-10-01T16:36:03.155Z,72.63
2018-10-01T16:38:30.668Z,73.55
2018-10-01T16:40:58.404Z,73.96
2018-10-01T16:43:26.413Z,72.30
2018-10-01T16:45:54.066Z,72.31
2018-10-01T16:48:21.789Z,72.31
2018-10-01T16:50:49.400Z,73.73
2018-10-01T16:53:17.042Z,73.49
2018-10-01T16:55:44.723Z,73.92
2018-10-01T16:58:12.399Z,73.64
2018-10-01T17:00:40.320Z,73.48
2018-10-01T17:03:08.059Z,72.57
2018-10-01T17:05:35.829Z,73.59
2018-10-01T17:08:03.426Z,73.52
2018-10-01T17:10:31.010Z,73.30
2018-10-01T17:12:58.815Z,73.39
2018-10-01T17:15:26.438Z,73.45
2018-10-01T17:17:54.085Z,73.57
2018-10-01T17:20:21.772Z,77.05
2018-10-01T17:22:49.379Z,76.48
2018-10-01T17:25:17.062Z,77.39
2018-10-01T17:27:44.800Z,76.92
2018-10-01T17:30:12.472Z,78.33
2018-10-01T17:32:40.275Z,77.46
2018-10-01T17:35:08.122Z,76.46
2018-10-01T17:37:36.098Z,75.18
2018-10-01T17:40:04.028Z,74.76
2018-10-01T17:42:31.716Z,74.82
2018-10-01T17:44:59.345Z,76.19
2018-10-01T17:47:27.009Z,75.02
2018-10-01T17:49:54.642Z,73.75
2018-10-01T17:52:22.438Z,74.70
2018-10-01T17:54:50.100Z,74.38
2018-10-01T17:57:17.920Z,76.08
2018-10-01T17:59:45.649Z,75.10
2018-10-01T18:02:13.297Z,75.72
2018-10-01T18:04:40.999Z,76.12
2018-10-01T18:07:08.769Z,75.22
2018-10-01T18:09:36.402Z,74.88
2018-10-01T18:12:04.353Z,74.42
2018-10-01T18:14:32.027Z,77.30
2018-10-01T18:16:59.803Z,76.61
2018-10-01T18:19:27.496Z,77.40
2018-10-01T18:21:55.236Z,77.07
2018-10-01T18:24:22.936Z,76.54
2018-10-01T18:26:50.680Z,77.05
2018-10-01T18:29:18.355Z,76.37
2018-10-01T18:31:46.013Z,75.90
2018-10-01T18:34:13.916Z,76.16
2018-10-01T18:36:41.554Z,75.65
2018-10-01T18:39:09.265Z,75.66
2018-10-01T18:41:36.879Z,75.22
2018-10-01T18:44:04.542Z,75.55
2018-10-01T18:46:32.190Z,75.28
2018-10-01T18:48:59.892Z,75.73
2018-10-01T18:51:27.622Z,75.15
2018-10-01T18:53:55.437Z,76.35
2018-10-01T18:56:23.071Z,76.39
2018-10-01T18:58:50.654Z,75.76
2018-10-01T19:01:18.437Z,75.56
2018-10-01T19:03:46.069Z,75.30
2018-10-01T19:06:13.812Z,75.17
2018-10-01T19:08:41.427Z,76.48
2018-10-01T19:11:09.106Z,75.31
2018-10-01T19:13:36.737Z,75.66
2018-10-01T19:16:04.470Z,76.14
2018-10-01T19:18:32.666Z,77.04
2018-10-01T19:21:00.462Z,76.74
2018-10-01T19:23:28.036Z,75.81
2018-10-01T19:25:55.783Z,75.38
2018-10-01T19:28:23.448Z,75.89
2018-10-01T19:30:51.080Z,75.05
2018-10-01T19:33:18.740Z,75.02
2018-10-01T19:35:46.535Z,74.90
2018-10-01T19:38:14.152Z,74.46
2018-10-01T19:40:41.784Z,74.37
2018-10-01T19:43:09.465Z,74.96
2018-10-01T19:45:37.088Z,74.58
2018-10-01T19:48:04.681Z,75.15
2018-10-01T19:50:32.344Z,74.74
2018-10-01T19:53:00.013Z,74.05
2018-10-01T19:55:27.681Z,75.19
2018-10-01T19:57:55.359Z,74.60
2018-10-01T20:00:23.092Z,74.65
2018-10-01T20:02:50.700Z,75.74
2018-10-01T20:05:18.310Z,75.56
2018-10-01T20:07:46.068Z,75.91
2018-10-01T20:10:13.854Z,76.13
2018-10-01T20:12:41.449Z,76.96
2018-10-01T20:15:09.205Z,76.72
2018-10-01T20:17:36.828Z,77.00
2018-10-01T20:20:05.562Z,77.15
2018-10-01T20:22:34.399Z,76.73
2018-10-01T20:25:02.142Z,77.50
2018-10-01T20:27:29.828Z,76.98
2018-10-01T20:29:57.675Z,77.42
2018-10-01T20:32:25.695Z,76.90
2018-10-01T20:34:53.608Z,76.69
2018-10-01T20:37:21.203Z,76.65
2018-10-01T20:39:48.796Z,76.16
2018-10-01T20:42:16.528Z,75.94
2018-10-01T20:44:44.225Z,75.86
2018-10-01T20:47:11.914Z,75.46
2018-10-01T20:49:39.550Z,75.33
2018-10-01T20:52:07.212Z,76.26
2018-10-01T20:54:34.843Z,76.86
2018-10-01T20:57:02.534Z,76.36
2018-10-01T20:59:30.156Z,75.81
2018-10-01T21:01:58.577Z,75.32
2018-10-01T21:04:26.382Z,75.51
2018-10-01T21:06:54.251Z,75.65
2018-10-01T21:09:21.978Z,75.51
2018-10-01T21:11:49.641Z,75.61
2018-10-01T21:14:17.528Z,75.88
2018-10-01T21:16:45.175Z,75.78
2018-10-01T21:19:12.980Z,75.15
2018-10-01T21:21:40.757Z,75.19
2018-10-01T21:24:08.526Z,74.47
2018-10-01T21:26:36.144Z,74.51
2018-10-01T21:29:03.848Z,75.35
2018-10-01T21:31:31.469Z,75.26
2018-10-01T21:33:59.322Z,74.86
2018-10-01T21:36:27.009Z,74.54
2018-10-01T21:38:54.710Z,74.47
2018-10-01T21:41:23.271Z,73.90
2018-10-01T21:43:50.908Z,75.07
2018-10-01T21:46:18.793Z,74.94
2018-10-01T21:48:46.466Z,75.50
2018-10-01T21:51:14.171Z,76.38
2018-10-01T21:53:41.860Z,75.68
2018-10-01T21:56:09.574Z,75.43
2018-10-01T21:58:37.238Z,75.29
2018-10-01T22:01:04.966Z,75.89
2018-10-01T22:03:32.557Z,75.55
2018-10-01T22:06:00.216Z,76.63
2018-10-01T22:08:28.017Z,76.31
2018-10-01T22:10:55.929Z,76.07
2018-10-01T22:13:23.574Z,76.28
2018-10-01T22:15:51.175Z,77.28
2018-10-01T22:18:19.087Z,76.84
2018-10-01T22:20:46.758Z,76.79
2018-10-01T22:23:14.519Z,77.34
2018-10-01T22:25:42.209Z,76.76
2018-10-01T22:28:09.854Z,76.79
2018-10-01T22:30:37.567Z,77.10
2018-10-01T22:33:05.270Z,77.16
2018-10-01T22:35:32.911Z,77.10
2018-10-01T22:38:00.569Z,78.00
2018-10-01T22:40:28.295Z,77.65
2018-10-01T22:42:56.139Z,76.76
2018-10-01T22:45:23.765Z,77.15
2018-10-01T22:47:51.428Z,77.41
2018-10-01T22:50:19.102Z,77.23
2018-10-01T22:52:46.745Z,77.06
2018-10-01T22:57:48.298Z,77.82
2018-10-01T23:00:15.951Z,78.76
2018-10-01T23:02:43.608Z,79.05
2018-10-01T23:05:11.165Z,78.97
2018-10-01T23:07:38.729Z,79.22
2018-10-01T23:10:06.275Z,78.49
2018-10-01T23:12:33.793Z,78.01
2018-10-01T23:15:01.333Z,79.00
2018-10-01T23:17:28.906Z,78.51
2018-10-01T23:19:56.495Z,79.42
2018-10-01T23:22:24.039Z,79.36
2018-10-01T23:24:51.563Z,78.99
2018-10-01T23:27:19.120Z,78.88
2018-10-01T23:29:46.637Z,79.51
2018-10-01T23:32:14.242Z,79.33
2018-10-01T23:34:41.737Z,79.24
2018-10-01T23:37:09.276Z,78.73
2018-10-01T23:39:36.788Z,78.50
2018-10-01T23:42:04.361Z,78.40
2018-10-01T23:44:31.880Z,78.70
2018-10-01T23:46:59.448Z,78.36
2018-10-01T23:49:27.164Z,78.77
2018-10-01T23:51:54.680Z,79.26
2018-10-01T23:54:22.280Z,78.97
2018-10-01T23:56:49.817Z,80.07
2018-10-01T23:59:17.388Z,80.02
